createdAt,value
2023-02-05T00:01:59.938Z,98619.85
2023-02-05T00:04:28.535Z,98620.83
2023-02-05T00:06:57.631Z,98618.44
2023-02-05T00:09:26.328Z,98612.46
2023-02-05T00:11:56.051Z,98606.52
2023-02-05T00:14:25.732Z,98604.91
2023-02-05T00:16:54.414Z,98601.64
2023-02-05T00:19:23.413Z,98600.22
2023-02-05T00:21:52.098Z,98599.56
2023-02-05T00:24:20.782Z,98595.70
2023-02-05T00:26:49.585Z,98592.79
2023-02-05T00:29:18.528Z,98594.65
2023-02-05T00:31:50.364Z,98593.73
2023-02-05T00:34:19.730Z,98590.05
2023-02-05T00:36:48.820Z,98590.30
2023-02-05T00:39:19.348Z,98588.80
2023-02-05T00:41:49.877Z,98586.36
2023-02-05T00:44:18.665Z,98587.28
2023-02-05T00:46:48.720Z,98584.26
2023-02-05T00:49:18.297Z,98585.42
2023-02-05T00:51:48.409Z,98583.35
2023-02-05T00:54:17.328Z,98578.52
2023-02-05T00:56:47.932Z,98575.91
2023-02-05T00:59:16.813Z,98569.52
2023-02-05T01:01:46.102Z,98566.29
2023-02-05T01:04:15.227Z,98562.87
2023-02-05T01:06:43.806Z,98558.60
2023-02-05T01:09:12.373Z,98557.67
2023-02-05T01:11:40.878Z,98554.62
2023-02-05T01:14:10.488Z,98549.36
2023-02-05T01:16:39.479Z,98546.38
2023-02-05T01:19:10.004Z,98543.44
2023-02-05T01:21:40.223Z,98542.39
2023-02-05T01:24:09.518Z,98540.42
2023-02-05T01:26:38.247Z,98540.75
2023-02-05T01:29:06.798Z,98536.05
2023-02-05T01:31:35.522Z,98534.13
2023-02-05T01:34:04.535Z,98533.14
2023-02-05T01:36:33.681Z,98532.95
2023-02-05T01:39:03.239Z,98535.04
2023-02-05T01:41:33.138Z,98532.59
2023-02-05T01:44:25.056Z,98534.86
2023-02-05T01:46:54.595Z,98518.70
2023-02-05T01:49:43.170Z,98527.64
2023-02-05T01:52:14.950Z,98513.87
2023-02-05T01:54:45.465Z,98527.18
2023-02-05T01:57:19.974Z,98527.39
2023-02-05T01:59:49.583Z,98524.02
2023-02-05T02:02:18.169Z,98526.96
2023-02-05T02:04:52.541Z,98524.55
2023-02-05T02:07:22.517Z,98518.83
2023-02-05T02:09:50.985Z,98519.18
2023-02-05T02:12:23.408Z,98520.67
2023-02-05T02:14:54.732Z,98518.33
2023-02-05T02:17:23.303Z,98518.85
2023-02-05T02:20:00.456Z,98521.27
2023-02-05T02:22:55.903Z,98510.35
2023-02-05T02:25:40.173Z,98503.02
2023-02-05T02:28:31.858Z,98507.10
2023-02-05T02:31:05.023Z,98507.19
2023-02-05T02:33:50.456Z,98520.15
2023-02-05T02:36:40.726Z,98510.82
2023-02-05T02:39:32.959Z,98509.35
2023-02-05T02:42:06.659Z,98510.66
2023-02-05T02:44:42.097Z,98521.67
2023-02-05T02:47:19.415Z,98521.11
2023-02-05T02:50:04.389Z,98522.13
2023-02-05T02:52:37.866Z,98520.83
2023-02-05T02:55:09.784Z,98527.01
2023-02-05T02:57:41.705Z,98531.61
2023-02-05T03:00:15.492Z,98534.85
2023-02-05T03:02:44.286Z,98535.32
2023-02-05T03:05:15.633Z,98536.97
2023-02-05T03:07:48.111Z,98534.39
2023-02-05T03:11:09.220Z,98539.02
2023-02-05T03:13:43.750Z,98507.52
2023-02-05T03:16:13.315Z,98531.80
2023-02-05T03:18:41.860Z,98537.64
2023-02-05T03:21:15.789Z,98543.60
2023-02-05T03:23:45.780Z,98539.81
2023-02-05T03:26:28.366Z,98544.61
2023-02-05T03:29:06.373Z,98532.70
2023-02-05T03:31:58.197Z,98546.91
2023-02-05T03:35:02.640Z,98535.35
2023-02-05T03:37:42.694Z,98527.14
2023-02-05T03:40:16.669Z,98534.88
2023-02-05T03:43:17.549Z,98543.71
2023-02-05T03:45:57.417Z,98531.92
2023-02-05T03:48:29.529Z,98547.05
2023-02-05T03:51:11.438Z,98555.44
2023-02-05T03:54:02.697Z,98545.45
2023-02-05T03:56:40.529Z,98538.79
2023-02-05T03:59:09.066Z,98547.92
2023-02-05T04:01:37.816Z,98554.54
2023-02-05T04:04:06.265Z,98553.34
2023-02-05T04:06:34.870Z,98555.17
2023-02-05T04:09:04.076Z,98552.62
2023-02-05T04:11:33.267Z,98553.36
2023-02-05T04:14:03.592Z,98549.13
2023-02-05T04:16:32.656Z,98552.67
2023-02-05T04:19:01.678Z,98553.90
2023-02-05T04:21:31.101Z,98553.17
2023-02-05T04:24:01.090Z,98555.82
2023-02-05T04:26:30.815Z,98557.41
2023-02-05T04:29:03.489Z,98555.55
2023-02-05T04:31:33.948Z,98559.67
2023-02-05T04:34:03.116Z,98554.27
2023-02-05T04:36:32.180Z,98552.65
2023-02-05T04:39:01.539Z,98549.99
2023-02-05T04:41:31.258Z,98548.27
2023-02-05T04:43:59.991Z,98552.66
2023-02-05T04:46:28.708Z,98555.52
2023-02-05T04:48:57.688Z,98555.91
2023-02-05T04:51:26.478Z,98559.13
2023-02-05T04:53:55.164Z,98560.21
2023-02-05T04:56:23.542Z,98563.02
2023-02-05T04:58:52.446Z,98566.76
2023-02-05T05:01:22.278Z,98565.70
2023-02-05T05:03:51.052Z,98562.66
2023-02-05T05:06:19.743Z,98567.08
2023-02-05T05:08:48.820Z,98565.13
2023-02-05T05:11:19.011Z,98566.48
2023-02-05T05:13:49.564Z,98563.34
2023-02-05T05:16:18.684Z,98561.82
2023-02-05T05:18:47.471Z,98568.85
2023-02-05T05:21:16.492Z,98563.64
2023-02-05T05:23:45.840Z,98569.60
2023-02-05T05:26:14.526Z,98571.27
2023-02-05T05:28:43.416Z,98568.73
2023-02-05T05:31:22.445Z,98571.05
2023-02-05T05:33:51.643Z,98562.95
2023-02-05T05:36:20.429Z,98573.20
2023-02-05T05:38:49.322Z,98569.25
2023-02-05T05:41:39.973Z,98570.72
2023-02-05T05:44:10.053Z,98558.51
2023-02-05T05:46:42.317Z,98566.73
2023-02-05T05:49:11.108Z,98568.20
2023-02-05T05:51:39.637Z,98574.90
2023-02-05T05:54:08.097Z,98571.21
2023-02-05T05:56:36.580Z,98570.40
2023-02-05T05:59:05.843Z,98564.38
2023-02-05T06:01:34.961Z,98562.90
2023-02-05T06:04:04.414Z,98561.42
2023-02-05T06:06:33.532Z,98560.20
2023-02-05T06:09:02.530Z,98556.89
2023-02-05T06:11:31.199Z,98556.60
2023-02-05T06:13:59.725Z,98560.23
2023-02-05T06:16:28.584Z,98556.61
2023-02-05T06:18:59.689Z,98556.38
2023-02-05T06:21:28.202Z,98556.52
2023-02-05T06:23:58.734Z,98553.09
2023-02-05T06:26:28.441Z,98555.92
2023-02-05T06:28:57.497Z,98560.73
2023-02-05T06:31:26.850Z,98561.81
2023-02-05T06:33:55.941Z,98565.14
2023-02-05T06:36:25.028Z,98567.45
2023-02-05T06:38:53.390Z,98574.90
2023-02-05T06:41:21.850Z,98573.60
2023-02-05T06:43:50.337Z,98578.05
2023-02-05T06:46:19.408Z,98584.19
2023-02-05T06:48:47.985Z,98583.53
2023-02-05T06:51:16.734Z,98582.15
2023-02-05T06:53:46.685Z,98584.39
2023-02-05T06:56:15.235Z,98582.58
2023-02-05T06:58:43.710Z,98588.50
2023-02-05T07:01:12.144Z,98589.46
2023-02-05T07:03:40.884Z,98587.23
2023-02-05T07:06:10.065Z,98586.68
2023-02-05T07:08:38.596Z,98587.23
2023-02-05T07:11:07.122Z,98589.21
2023-02-05T07:13:36.188Z,98591.86
2023-02-05T07:16:05.624Z,98600.27
2023-02-05T07:18:34.532Z,98601.79
2023-02-05T07:21:08.863Z,98600.95
2023-02-05T07:23:37.633Z,98602.52
2023-02-05T07:26:07.966Z,98607.85
2023-02-05T07:28:36.682Z,98602.70
2023-02-05T07:31:06.838Z,98604.06
2023-02-05T07:33:39.346Z,98601.67
2023-02-05T07:36:09.326Z,98602.78
2023-02-05T07:38:38.719Z,98606.35
2023-02-05T07:41:08.375Z,98611.54
2023-02-05T07:43:38.207Z,98612.17
2023-02-05T07:46:12.066Z,98612.39
2023-02-05T07:48:40.769Z,98613.92
2023-02-05T07:51:10.688Z,98621.81
2023-02-05T07:53:39.268Z,98624.91
2023-02-05T07:56:07.884Z,98625.10
2023-02-05T07:58:36.795Z,98621.48
2023-02-05T08:01:07.282Z,98620.61
2023-02-05T08:03:35.852Z,98618.02
2023-02-05T08:06:06.284Z,98621.21
2023-02-05T08:08:34.761Z,98621.90
2023-02-05T08:11:05.291Z,98630.64
2023-02-05T08:13:36.715Z,98637.79
2023-02-05T08:16:07.535Z,98647.09
2023-02-05T08:18:36.433Z,98646.92
2023-02-05T08:21:05.281Z,98650.22
2023-02-05T08:23:34.249Z,98654.24
2023-02-05T08:26:03.128Z,98662.13
2023-02-05T08:28:31.829Z,98666.20
2023-02-05T08:31:00.620Z,98675.86
2023-02-05T08:33:29.817Z,98688.51
2023-02-05T08:35:59.424Z,98691.48
2023-02-05T08:38:28.433Z,98703.61
2023-02-05T08:40:58.227Z,98706.13
2023-02-05T08:43:26.817Z,98710.33
2023-02-05T08:45:55.721Z,98717.95
2023-02-05T08:48:25.068Z,98723.23
2023-02-05T08:50:53.788Z,98731.14
2023-02-05T08:53:22.368Z,98737.34
2023-02-05T08:56:02.532Z,98740.21
2023-02-05T08:58:31.521Z,98733.77
2023-02-05T09:01:05.415Z,98738.48
2023-02-05T09:03:33.994Z,98739.95
2023-02-05T09:06:05.867Z,98744.37
2023-02-05T09:08:35.266Z,98749.86
2023-02-05T09:11:04.875Z,98756.95
2023-02-05T09:13:33.784Z,98769.23
2023-02-05T09:16:02.468Z,98770.69
2023-02-05T09:18:32.267Z,98781.75
2023-02-05T09:21:02.208Z,98788.68
2023-02-05T09:23:31.583Z,98801.38
2023-02-05T09:26:00.593Z,98810.14
2023-02-05T09:28:29.670Z,98819.88
2023-02-05T09:30:58.597Z,98827.52
2023-02-05T09:33:27.467Z,98838.41
2023-02-05T09:35:59.139Z,98846.06
2023-02-05T09:38:27.626Z,98861.63
2023-02-05T09:41:06.028Z,98879.84
2023-02-05T09:43:53.764Z,98889.99
2023-02-05T09:46:42.804Z,98896.39
2023-02-05T09:49:12.077Z,98908.66
2023-02-05T09:51:49.295Z,98937.66
2023-02-05T09:54:39.328Z,98949.04
2023-02-05T09:57:12.110Z,98949.16
2023-02-05T09:59:43.006Z,98968.64
2023-02-05T10:02:32.051Z,98981.36
2023-02-05T10:05:00.846Z,98982.86
2023-02-05T10:07:50.615Z,99010.98
2023-02-05T10:10:29.234Z,99037.63
2023-02-05T10:13:12.673Z,99066.74
2023-02-05T10:15:43.967Z,99080.98
2023-02-05T10:18:32.768Z,99110.50
2023-02-05T10:21:04.355Z,99126.85
2023-02-05T10:23:46.119Z,99154.89
2023-02-05T10:26:15.824Z,99172.34
2023-02-05T10:29:03.970Z,99196.67
2023-02-05T10:32:17.429Z,99208.31
2023-02-05T10:35:08.004Z,99224.44
2023-02-05T10:37:46.400Z,99260.73
2023-02-05T10:40:18.501Z,99294.86
2023-02-05T10:42:50.991Z,99326.10
2023-02-05T10:45:27.020Z,99354.05
2023-02-05T10:48:18.949Z,99386.63
2023-02-05T10:50:50.398Z,99414.45
2023-02-05T10:53:24.103Z,99460.00
2023-02-05T10:55:52.812Z,99495.60
2023-02-05T10:58:34.696Z,99532.66
2023-02-05T11:01:04.298Z,99555.62
2023-02-05T11:03:35.335Z,99584.04
2023-02-05T11:06:07.751Z,99611.13
2023-02-05T11:08:42.136Z,99633.09
2023-02-05T11:11:24.165Z,99658.45
2023-02-05T11:13:56.192Z,99668.91
2023-02-05T11:16:36.597Z,99682.75
2023-02-05T11:19:05.851Z,99690.96
2023-02-05T11:21:47.858Z,99709.98
2023-02-05T11:24:36.700Z,99714.04
2023-02-05T11:27:17.578Z,99720.14
2023-02-05T11:29:46.663Z,99725.67
2023-02-05T11:32:22.109Z,99733.95
2023-02-05T11:34:51.410Z,99737.56
2023-02-05T11:37:20.295Z,99748.48
2023-02-05T11:39:54.066Z,99753.40
2023-02-05T11:42:25.254Z,99757.59
2023-02-05T11:44:58.871Z,99761.92
2023-02-05T11:47:33.064Z,99765.05
2023-02-05T11:50:02.170Z,99771.60
2023-02-05T11:52:37.826Z,99775.48
2023-02-05T11:55:07.108Z,99776.84
2023-02-05T11:57:39.295Z,99778.02
2023-02-05T12:00:16.430Z,99776.56
2023-02-05T12:02:45.327Z,99775.30
2023-02-05T12:05:14.062Z,99775.58
2023-02-05T12:08:22.558Z,99774.48
2023-02-05T12:11:20.325Z,99761.08
2023-02-05T12:14:15.512Z,99752.83
2023-02-05T12:17:02.956Z,99739.36
2023-02-05T12:19:38.879Z,99735.20
2023-02-05T12:22:26.336Z,99727.05
2023-02-05T12:25:09.686Z,99714.14
2023-02-05T12:27:45.424Z,99713.16
2023-02-05T12:30:36.469Z,99715.67
2023-02-05T12:33:31.739Z,99706.67
2023-02-05T12:36:38.311Z,99707.38
2023-02-05T12:39:26.388Z,99708.91
2023-02-05T12:42:30.974Z,99724.36
2023-02-05T12:45:05.341Z,99727.04
2023-02-05T12:48:13.103Z,99741.67
2023-02-05T12:51:00.321Z,99734.63
2023-02-05T12:53:47.655Z,99742.05
2023-02-05T12:56:39.977Z,99752.45
2023-02-05T12:59:16.050Z,99763.79
2023-02-05T13:01:51.841Z,99785.70
2023-02-05T13:04:44.751Z,99800.17
2023-02-05T13:07:24.191Z,99804.29
2023-02-05T13:10:00.276Z,99817.25
2023-02-05T13:12:34.610Z,99821.05
2023-02-05T13:15:22.597Z,99826.50
2023-02-05T13:18:13.308Z,99823.17
2023-02-05T13:21:03.088Z,99819.05
2023-02-05T13:23:51.324Z,99821.33
2023-02-05T13:26:26.360Z,99823.33
2023-02-05T13:29:02.978Z,99833.64
2023-02-05T13:31:34.645Z,99838.98
2023-02-05T13:34:05.438Z,99848.41
2023-02-05T13:36:36.948Z,99857.95
2023-02-05T13:39:08.732Z,99855.41
2023-02-05T13:41:46.718Z,99853.23
2023-02-05T13:44:19.218Z,99849.70
2023-02-05T13:47:20.249Z,99844.15
2023-02-05T13:50:17.715Z,99831.02
2023-02-05T13:52:49.746Z,99826.42
2023-02-05T13:55:30.469Z,99825.55
2023-02-05T13:58:22.685Z,99823.86
2023-02-05T14:01:03.204Z,99818.20
2023-02-05T14:03:39.386Z,99819.94
2023-02-05T14:06:28.123Z,99817.08
2023-02-05T14:09:24.084Z,99810.93
2023-02-05T14:11:57.955Z,99802.86
2023-02-05T14:14:36.737Z,99805.82
2023-02-05T14:17:28.150Z,99801.77
2023-02-05T14:19:58.784Z,99786.19
2023-02-05T14:22:44.262Z,99782.79
2023-02-05T14:25:45.393Z,99773.72
2023-02-05T14:28:18.855Z,99757.17
2023-02-05T14:30:48.996Z,99760.22
2023-02-05T14:33:35.728Z,99755.90
2023-02-05T14:36:21.519Z,99738.67
2023-02-05T14:38:57.976Z,99730.91
2023-02-05T14:41:51.117Z,99725.55
2023-02-05T14:44:30.166Z,99715.48
2023-02-05T14:47:06.847Z,99715.30
2023-02-05T14:49:39.847Z,99711.80
2023-02-05T14:52:31.876Z,99710.18
2023-02-05T14:55:18.565Z,99697.51
2023-02-05T14:58:06.266Z,99693.08
2023-02-05T15:00:39.497Z,99688.88
2023-02-05T15:03:17.242Z,99691.30
2023-02-05T15:05:46.709Z,99686.09
2023-02-05T15:08:34.822Z,99687.88
2023-02-05T15:11:24.927Z,99673.23
2023-02-05T15:14:21.549Z,99671.17
2023-02-05T15:17:05.393Z,99660.84
2023-02-05T15:19:37.942Z,99659.65
2023-02-05T15:22:06.862Z,99661.30
2023-02-05T15:24:35.661Z,99665.27
2023-02-05T15:27:05.465Z,99662.69
2023-02-05T15:29:46.641Z,99657.93
2023-02-05T15:32:22.295Z,99650.84
2023-02-05T15:34:59.375Z,99651.17
2023-02-05T15:37:44.343Z,99642.55
2023-02-05T15:40:20.535Z,99635.02
2023-02-05T15:42:56.048Z,99632.44
2023-02-05T15:45:34.334Z,99632.17
2023-02-05T15:48:03.260Z,99626.01
2023-02-05T15:50:32.349Z,99625.61
2023-02-05T15:53:01.246Z,99624.29
2023-02-05T15:55:30.134Z,99618.64
2023-02-05T15:58:05.077Z,99616.35
2023-02-05T16:00:45.633Z,99609.96
2023-02-05T16:03:33.663Z,99596.36
2023-02-05T16:06:07.238Z,99584.89
2023-02-05T16:08:35.960Z,99583.66
2023-02-05T16:11:06.601Z,99577.13
2023-02-05T16:13:37.108Z,99565.68
2023-02-05T16:16:09.154Z,99561.14
2023-02-05T16:18:43.899Z,99557.44
2023-02-05T16:21:28.457Z,99547.92
2023-02-05T16:24:04.108Z,99533.60
2023-02-05T16:26:49.072Z,99530.13
2023-02-05T16:29:28.123Z,99522.89
2023-02-05T16:32:00.393Z,99517.28
2023-02-05T16:34:29.373Z,99512.32
2023-02-05T16:37:00.709Z,99505.98
2023-02-05T16:39:33.900Z,99501.16
2023-02-05T16:42:04.740Z,99494.05
2023-02-05T16:44:39.266Z,99487.74
2023-02-05T16:47:19.513Z,99482.05
2023-02-05T16:49:48.515Z,99474.71
2023-02-05T16:52:31.218Z,99470.48
2023-02-05T16:55:04.956Z,99438.08
2023-02-05T16:57:37.298Z,99431.75
2023-02-05T17:00:29.831Z,99429.39
2023-02-05T17:03:00.163Z,99374.09
2023-02-05T17:05:36.808Z,99355.09
2023-02-05T17:08:09.863Z,99335.61
2023-02-05T17:10:52.555Z,99334.55
2023-02-05T17:13:50.824Z,99327.06
2023-02-05T17:16:23.873Z,99312.09
2023-02-05T17:18:54.340Z,99316.52
2023-02-05T17:21:25.179Z,99316.58
2023-02-05T17:23:54.737Z,99318.77
2023-02-05T17:26:24.604Z,99319.48
2023-02-05T17:28:55.740Z,99321.23
2023-02-05T17:31:26.642Z,99316.38
2023-02-05T17:33:58.544Z,99317.17
2023-02-05T17:36:27.430Z,99314.90
2023-02-05T17:38:56.720Z,99315.08
2023-02-05T17:41:49.589Z,99313.73
2023-02-05T17:44:18.264Z,99296.70
2023-02-05T17:46:46.871Z,99309.73
2023-02-05T17:49:15.950Z,99314.54
2023-02-05T17:51:44.652Z,99309.80
2023-02-05T17:54:20.968Z,99311.67
2023-02-05T17:56:50.648Z,99305.70
2023-02-05T17:59:21.519Z,99309.77
2023-02-05T18:01:50.842Z,99309.69
2023-02-05T18:04:19.565Z,99308.96
2023-02-05T18:06:50.772Z,99309.19
2023-02-05T18:09:20.414Z,99305.28
2023-02-05T18:11:49.886Z,99304.73
2023-02-05T18:14:19.593Z,99303.78
2023-02-05T18:16:48.418Z,99296.85
2023-02-05T18:19:17.481Z,99297.33
2023-02-05T18:21:47.601Z,99296.45
2023-02-05T18:24:16.507Z,99293.91
2023-02-05T18:26:46.095Z,99295.86
2023-02-05T18:29:15.400Z,99296.02
2023-02-05T18:31:44.282Z,99298.17
2023-02-05T18:34:13.482Z,99300.40
2023-02-05T18:36:42.486Z,99302.62
2023-02-05T18:39:11.272Z,99303.69
2023-02-05T18:41:41.485Z,99297.29
2023-02-05T18:44:10.276Z,99297.84
2023-02-05T18:46:39.275Z,99291.65
2023-02-05T18:49:08.156Z,99290.31
2023-02-05T18:51:37.681Z,99288.81
2023-02-05T18:54:09.422Z,99287.79
2023-02-05T18:56:38.723Z,99290.52
2023-02-05T18:59:08.643Z,99287.80
2023-02-05T19:01:38.694Z,99286.59
2023-02-05T19:04:08.970Z,99289.44
2023-02-05T19:06:37.473Z,99284.98
2023-02-05T19:09:05.959Z,99279.83
2023-02-05T19:11:40.995Z,99276.25
2023-02-05T19:14:11.917Z,99274.27
2023-02-05T19:16:42.439Z,99277.80
2023-02-05T19:19:23.310Z,99281.59
2023-02-05T19:21:54.138Z,99274.54
2023-02-05T19:24:23.134Z,99280.55
2023-02-05T19:26:54.480Z,99292.48
2023-02-05T19:29:23.606Z,99292.20
2023-02-05T19:31:57.580Z,99291.30
2023-02-05T19:34:28.112Z,99290.66
2023-02-05T19:36:58.851Z,99290.22
2023-02-05T19:39:28.446Z,99287.94
2023-02-05T19:41:57.040Z,99287.90
2023-02-05T19:44:27.876Z,99286.05
2023-02-05T19:46:57.513Z,99281.10
2023-02-05T19:49:26.055Z,99285.63
2023-02-05T19:51:55.679Z,99285.98
2023-02-05T19:54:24.547Z,99297.15
2023-02-05T19:56:55.267Z,99294.44
2023-02-05T19:59:25.131Z,99294.96
2023-02-05T20:01:54.418Z,99294.60
2023-02-05T20:04:25.261Z,99294.12
2023-02-05T20:06:58.700Z,99297.20
2023-02-05T20:09:28.057Z,99292.35
2023-02-05T20:11:56.941Z,99298.02
2023-02-05T20:14:27.066Z,99299.13
2023-02-05T20:16:56.265Z,99295.08
2023-02-05T20:19:25.142Z,99296.45
2023-02-05T20:21:54.133Z,99297.25
2023-02-05T20:24:22.998Z,99292.59
2023-02-05T20:26:53.248Z,99291.95
2023-02-05T20:29:40.687Z,99287.98
2023-02-05T20:32:09.765Z,99283.20
2023-02-05T20:34:45.289Z,99291.39
2023-02-05T20:37:13.919Z,99296.91
2023-02-05T20:39:45.137Z,99304.83
2023-02-05T20:42:14.647Z,99304.80
2023-02-05T20:44:43.653Z,99308.78
2023-02-05T20:47:13.562Z,99313.17
2023-02-05T20:49:43.372Z,99317.13
2023-02-05T20:52:12.254Z,99324.08
2023-02-05T20:54:42.182Z,99333.86
2023-02-05T20:57:11.233Z,99337.75
2023-02-05T20:59:40.380Z,99340.20
2023-02-05T21:02:10.632Z,99332.73
2023-02-05T21:04:40.200Z,99336.23
2023-02-05T21:07:08.768Z,99333.30
2023-02-05T21:09:37.830Z,99337.38
2023-02-05T21:12:06.755Z,99342.30
2023-02-05T21:14:36.262Z,99335.69
2023-02-05T21:17:05.261Z,99337.04
2023-02-05T21:19:33.959Z,99341.58
2023-02-05T21:22:03.416Z,99344.91
2023-02-05T21:24:32.338Z,99349.52
2023-02-05T21:27:01.070Z,99353.60
2023-02-05T21:29:29.725Z,99364.08
2023-02-05T21:31:58.500Z,99364.30
2023-02-05T21:34:28.209Z,99363.70
2023-02-05T21:36:57.196Z,99367.69
2023-02-05T21:39:26.107Z,99367.77
2023-02-05T21:41:55.031Z,99366.34
2023-02-05T21:44:24.306Z,99367.39
2023-02-05T21:46:55.196Z,99362.63
2023-02-05T21:49:23.907Z,99360.09
2023-02-05T21:51:53.793Z,99362.99
2023-02-05T21:54:25.685Z,99359.53
2023-02-05T21:56:54.878Z,99358.58
2023-02-05T21:59:24.383Z,99361.83
2023-02-05T22:01:53.185Z,99360.66
2023-02-05T22:04:21.745Z,99365.15
2023-02-05T22:06:50.712Z,99364.17
2023-02-05T22:09:23.520Z,99357.66
2023-02-05T22:11:52.447Z,99362.65
2023-02-05T22:14:20.957Z,99365.39
2023-02-05T22:16:49.599Z,99367.80
2023-02-05T22:19:20.116Z,99364.86
2023-02-05T22:21:49.113Z,99363.55
2023-02-05T22:24:18.828Z,99365.95
2023-02-05T22:26:48.237Z,99362.45
2023-02-05T22:29:18.673Z,99361.58
2023-02-05T22:31:51.833Z,99360.20
2023-02-05T22:34:21.036Z,99363.85
2023-02-05T22:36:49.831Z,99367.45
2023-02-05T22:39:18.627Z,99363.99
2023-02-05T22:41:47.839Z,99371.02
2023-02-05T22:44:16.447Z,99375.82
2023-02-05T22:46:45.101Z,99376.30
2023-02-05T22:49:15.727Z,99377.61
2023-02-05T22:51:44.667Z,99378.00
2023-02-05T22:54:13.919Z,99376.24
2023-02-05T22:56:43.253Z,99374.70
2023-02-05T22:59:12.506Z,99375.41
2023-02-05T23:01:42.074Z,99383.73
2023-02-05T23:04:10.791Z,99393.34
2023-02-05T23:06:42.549Z,99399.42
2023-02-05T23:09:13.790Z,99401.73
2023-02-05T23:11:44.231Z,99404.94
2023-02-05T23:14:14.676Z,99409.52
2023-02-05T23:16:45.052Z,99418.00
2023-02-05T23:19:16.943Z,99417.52
2023-02-05T23:21:45.822Z,99421.28
2023-02-05T23:24:15.182Z,99426.08
2023-02-05T23:26:46.374Z,99430.29
2023-02-05T23:29:15.719Z,99427.45
2023-02-05T23:31:44.501Z,99437.42
2023-02-05T23:34:13.231Z,99437.26
2023-02-05T23:36:41.681Z,99441.58
2023-02-05T23:39:10.377Z,99444.16
2023-02-05T23:41:40.242Z,99449.24
2023-02-05T23:44:18.083Z,99457.94
2023-02-05T23:46:49.104Z,99455.28
2023-02-05T23:49:21.989Z,99463.09
2023-02-05T23:51:51.483Z,99464.16
2023-02-05T23:54:20.859Z,99470.10
2023-02-05T23:56:50.065Z,99474.53
2023-02-05T23:59:18.630Z,99475.56
